Terminal Aerodrome Forecast
Issued by NWS

Home | Current Version | Previous Version | Text Only | Print | Product List | Glossary On
Versions: 1 2 3 4 5 6 7 8 9 10 11 12 13 14
000
FTUS46 KMTR 200118 AAA
TAFSJC
TAF AMD
KSJC 200118Z 2001/2024 20006KT P6SM VCSH FEW010 SCT050 BKN180
      TEMPO 2001/2002 VRB06KT 3SM -SHRA BKN030
     FM200200 18006KT P6SM SCT050 BKN100
     FM200700 13017G32KT P6SM -RA BKN015 OVC040
     FM201000 14025G38KT 6SM -RA OVC015
     FM201600 15023G30KT 6SM -RA OVC015
     FM202000 22018G25KT P6SM -SHRA BKN020 OVC050=

USA.gov is the U.S. government's official web portal to all federal, state and local government web resources and services.